Time;durP1;ratioP1;P1;durP2;ratioP2;P2;SDS_P1;SDS_P2;PMS_P1;PMS_P2;Temp;Humidity;BMP_temperature;BMP_pressure;BME280_temperature;BME280_humidity;BME280_pressure;Samples;Min_cycle;Max_cycle;Signal;HPM_P1;HPM_P2
2023/06/14 00:02:14;;;;;;;7.00;4.90;;;;;;;19.34;50.81;101072.50;4980741;28;20038;-73
2023/06/14 00:04:41;;;;;;;6.57;4.57;;;;;;;19.32;50.71;101077.16;4988718;28;20044;-73
2023/06/14 00:07:09;;;;;;;11.20;4.40;;;;;;;19.28;50.67;101081.22;4996620;28;20065;-73
2023/06/14 00:09:35;;;;;;;7.20;4.18;;;;;;;19.25;50.93;101085.09;5000082;28;22056;-73
2023/06/14 00:12:01;;;;;;;6.75;4.40;;;;;;;19.21;51.07;101078.59;5002145;28;20031;-73
2023/06/14 00:14:26;;;;;;;6.78;4.80;;;;;;;19.17;51.13;101080.84;5004929;28;20046;-73
2023/06/14 00:16:58;;;;;;;6.40;4.75;;;;;;;19.12;51.45;101088.56;5001991;28;20045;-73
2023/06/14 00:19:25;;;;;;;9.35;4.30;;;;;;;19.04;51.71;101086.94;5002156;28;20120;-73
2023/06/14 00:21:51;;;;;;;6.80;4.15;;;;;;;18.93;52.41;101089.38;5003932;28;20440;-73
2023/06/14 00:24:17;;;;;;;6.95;4.75;;;;;;;18.83;52.85;101093.22;5000685;28;20636;-73
2023/06/14 00:26:43;;;;;;;8.18;4.90;;;;;;;18.82;53.42;101090.81;5003375;28;20113;-72
2023/06/14 00:29:08;;;;;;;9.25;4.93;;;;;;;18.81;53.56;101099.69;5005995;28;20521;-73
2023/06/14 00:31:35;;;;;;;12.23;4.70;;;;;;;18.77;53.74;101106.34;4992727;28;20117;-73
2023/06/14 00:34:04;;;;;;;8.27;4.85;;;;;;;18.74;53.88;101099.69;4996664;28;20042;-73
2023/06/14 00:36:29;;;;;;;7.32;4.65;;;;;;;18.72;54.12;101100.88;4980369;28;20056;-73
2023/06/14 00:38:55;;;;;;;8.27;5.60;;;;;;;18.68;54.26;101103.94;4993364;28;20528;-73
2023/06/14 00:41:21;;;;;;;7.25;4.93;;;;;;;18.61;54.24;101102.28;5003674;28;22154;-73
2023/06/14 00:43:47;;;;;;;10.27;5.53;;;;;;;18.56;53.95;101100.28;5001176;28;20038;-73
2023/06/14 00:46:14;;;;;;;10.98;5.50;;;;;;;18.53;53.46;101097.25;5019556;28;20499;-73
2023/06/14 00:48:40;;;;;;;9.27;5.00;;;;;;;18.51;53.26;101096.63;4999033;28;20057;-73
2023/06/14 00:51:06;;;;;;;8.18;5.35;;;;;;;18.47;53.20;101099.66;5000570;28;22471;-73
2023/06/14 00:57:20;;;;;;;14.25;5.50;;;;;;;18.38;53.38;101092.97;4983380;28;20661;-73
2023/06/14 00:59:47;;;;;;;7.70;4.93;;;;;;;18.36;53.64;101095.00;4995634;28;20046;-73
2023/06/14 01:02:17;;;;;;;9.18;5.53;;;;;;;18.34;54.12;101099.63;4999083;28;20112;-73
2023/06/14 01:04:47;;;;;;;8.85;5.50;;;;;;;18.32;54.31;101104.28;4998009;28;20713;-73
2023/06/14 01:07:42;;;;;;;7.72;5.35;;;;;;;18.27;54.11;101106.69;5000752;28;20045;-73
2023/06/14 01:10:24;;;;;;;8.48;5.10;;;;;;;18.24;54.04;101096.59;4984564;28;20046;-73
2023/06/14 01:13:27;;;;;;;12.80;5.15;;;;;;;18.20;53.70;101098.03;4978363;28;20929;-73
2023/06/14 01:15:55;;;;;;;9.05;5.35;;;;;;;18.16;53.22;101109.91;4985358;28;20088;-73
2023/06/14 01:18:23;;;;;;;9.02;5.63;;;;;;;18.09;53.01;101097.59;5001347;28;20049;-73
2023/06/14 01:20:49;;;;;;;9.70;5.38;;;;;;;18.05;52.73;101106.84;5007481;28;20052;-73
2023/06/14 01:23:20;;;;;;;14.20;5.90;;;;;;;18.02;53.03;101107.25;4998446;28;20030;-73
2023/06/14 01:25:46;;;;;;;11.80;6.00;;;;;;;18.01;53.06;101107.47;4997286;28;20033;-73
2023/06/14 01:28:16;;;;;;;8.43;5.07;;;;;;;17.99;52.92;101105.03;4986669;28;20038;-73
2023/06/14 01:30:46;;;;;;;11.18;5.03;;;;;;;17.98;52.86;101106.03;5017435;28;20132;-73
2023/06/14 01:33:20;;;;;;;7.85;5.00;;;;;;;17.96;52.93;101102.78;5000635;28;20537;-72
2023/06/14 01:35:47;;;;;;;9.25;5.47;;;;;;;17.93;52.46;101105.81;4965769;28;20170;-73
2023/06/14 01:38:14;;;;;;;9.93;5.38;;;;;;;17.91;52.59;101107.81;4983603;28;20080;-73
2023/06/14 01:40:42;;;;;;;17.27;6.00;;;;;;;17.89;52.74;101107.19;4998809;28;20547;-73
2023/06/14 01:43:10;;;;;;;9.68;5.18;;;;;;;17.88;53.15;101111.66;4983045;28;20033;-73
2023/06/14 01:45:37;;;;;;;8.50;4.85;;;;;;;17.88;53.37;101111.66;4977659;28;20053;-73
2023/06/14 01:48:04;;;;;;;8.60;5.22;;;;;;;17.83;53.77;101111.41;4975368;28;20045;-73
2023/06/14 01:50:34;;;;;;;9.40;5.13;;;;;;;17.81;54.21;101116.03;5000660;28;21082;-73
2023/06/14 01:53:00;;;;;;;8.90;5.28;;;;;;;17.75;55.96;101111.56;4983376;28;20030;-73
2023/06/14 01:55:26;;;;;;;12.15;4.90;;;;;;;17.70;57.19;101119.22;5005973;28;20038;-73
2023/06/14 01:57:52;;;;;;;7.93;5.18;;;;;;;17.61;58.04;101112.50;5006377;28;20030;-73
2023/06/14 02:00:19;;;;;;;11.35;5.28;;;;;;;17.49;58.84;101114.88;4996400;28;20053;-73
2023/06/14 02:02:45;;;;;;;8.75;5.25;;;;;;;17.38;59.12;101112.81;4983638;28;20109;-73
2023/06/14 02:05:11;;;;;;;9.57;4.72;;;;;;;17.30;59.45;101116.38;4997036;28;20037;-73
2023/06/14 02:07:36;;;;;;;7.82;5.15;;;;;;;17.26;59.55;101113.34;4986289;28;20027;-73
2023/06/14 02:10:03;;;;;;;8.18;4.80;;;;;;;17.26;59.53;101113.34;4986423;28;20050;-73
2023/06/14 02:12:28;;;;;;;11.02;5.07;;;;;;;17.27;59.57;101112.34;4981208;28;20030;-73
2023/06/14 02:14:57;;;;;;;11.38;5.68;;;;;;;17.25;59.31;101116.16;4982391;28;20062;-73
2023/06/14 02:17:23;;;;;;;8.98;5.57;;;;;;;17.21;59.45;101115.72;5000645;28;20031;-73
2023/06/14 02:19:52;;;;;;;9.02;5.53;;;;;;;17.15;59.44;101113.88;5000545;28;20052;-73
2023/06/14 02:22:18;;;;;;;9.93;5.55;;;;;;;17.12;58.87;101122.09;5004679;28;20057;-73
2023/06/14 02:24:43;;;;;;;9.02;5.13;;;;;;;17.10;58.65;101117.09;5001600;28;20042;-72
2023/06/14 02:27:11;;;;;;;11.13;5.20;;;;;;;17.11;58.50;101121.31;4982036;28;20556;-73
2023/06/14 02:29:37;;;;;;;7.40;5.00;;;;;;;17.09;58.23;101122.50;4968069;28;20550;-73
2023/06/14 02:32:09;;;;;;;10.10;5.13;;;;;;;17.07;57.95;101121.88;4968709;28;20029;-72
2023/06/14 02:34:35;;;;;;;7.60;5.13;;;;;;;17.05;58.14;101123.91;4990506;28;20054;-73
2023/06/14 02:37:04;;;;;;;10.35;4.80;;;;;;;17.04;57.91;101127.50;4985236;28;21033;-73
2023/06/14 02:39:29;;;;;;;7.80;5.13;;;;;;;16.97;57.91;101131.88;4987266;28;20133;-73
2023/06/14 02:41:55;;;;;;;11.32;5.05;;;;;;;16.90;57.97;101127.41;4986698;28;20627;-73
2023/06/14 02:44:28;;;;;;;9.55;5.45;;;;;;;16.87;58.40;101125.16;4983738;28;20053;-73
2023/06/14 02:46:55;;;;;;;11.23;5.32;;;;;;;16.84;58.36;101124.72;4982105;28;20076;-73
2023/06/14 02:49:21;;;;;;;9.73;5.28;;;;;;;16.84;58.32;101136.03;4994436;28;20137;-73
2023/06/14 02:51:47;;;;;;;9.10;5.22;;;;;;;16.83;58.38;101137.00;5005334;28;20105;-73
2023/06/14 02:54:12;;;;;;;9.23;4.97;;;;;;;16.82;58.72;101139.78;5002828;28;20571;-73
2023/06/14 02:56:38;;;;;;;8.43;5.07;;;;;;;16.80;58.91;101147.03;5002296;28;20071;-73
2023/06/14 02:59:04;;;;;;;7.93;5.30;;;;;;;16.78;59.23;101147.19;4978583;28;20034;-72
2023/06/14 03:01:33;;;;;;;8.73;5.20;;;;;;;16.76;59.82;101143.16;4977941;28;20099;-72
2023/06/14 03:04:03;;;;;;;9.20;5.00;;;;;;;16.72;59.89;101153.19;4976081;28;20073;-73
2023/06/14 03:06:30;;;;;;;10.20;4.95;;;;;;;16.70;60.05;101153.38;4985445;28;20081;-73
2023/06/14 03:09:04;;;;;;;8.35;5.35;;;;;;;16.68;60.44;101154.56;4971746;28;20122;-73
2023/06/14 03:11:36;;;;;;;9.05;5.00;;;;;;;16.63;60.75;101163.00;4983176;28;20034;-72
2023/06/14 03:14:04;;;;;;;9.30;5.72;;;;;;;16.60;60.85;101163.38;4973030;28;20045;-73
2023/06/14 03:16:31;;;;;;;7.82;4.85;;;;;;;16.59;60.79;101160.94;4982618;28;20656;-72
2023/06/14 03:18:58;;;;;;;9.88;4.72;;;;;;;16.54;60.89;101162.31;4987805;28;20101;-73
2023/06/14 03:21:25;;;;;;;7.38;4.47;;;;;;;16.51;60.81;101160.06;4983706;28;20034;-73
2023/06/14 03:23:52;;;;;;;8.07;4.72;;;;;;;16.47;60.72;101161.44;4988370;28;20536;-73
2023/06/14 03:26:18;;;;;;;10.25;5.03;;;;;;;16.46;60.68;101169.47;4989356;28;20045;-73
2023/06/14 03:28:47;;;;;;;8.73;4.80;;;;;;;16.44;60.74;101168.84;4998047;28;20517;-72
2023/06/14 03:31:13;;;;;;;8.98;5.30;;;;;;;16.41;60.98;101172.66;4983014;28;20042;-73
2023/06/14 03:33:39;;;;;;;8.38;5.07;;;;;;;16.34;60.99;101172.56;4987229;28;21920;-72
2023/06/14 03:36:09;;;;;;;10.52;4.90;;;;;;;16.27;61.11;101179.53;4986943;28;20081;-73
2023/06/14 03:38:35;;;;;;;11.82;5.57;;;;;;;16.24;61.35;101179.09;4989411;28;20113;-72
2023/06/14 03:41:02;;;;;;;7.40;5.20;;;;;;;16.21;61.42;101184.69;4998914;28;20120;-73
2023/06/14 03:43:28;;;;;;;8.63;4.90;;;;;;;16.19;61.32;101189.31;5012974;28;20512;-73
2023/06/14 03:45:53;;;;;;;11.32;5.10;;;;;;;16.19;61.00;101187.50;4983721;28;20053;-72
2023/06/14 03:48:58;;;;;;;8.45;4.82;;;;;;;16.17;61.01;101180.81;4999109;28;20042;-73
2023/06/14 03:51:25;;;;;;;12.55;5.32;;;;;;;16.15;60.87;101188.84;4975775;28;20125;-73
2023/06/14 03:53:51;;;;;;;11.63;5.18;;;;;;;16.07;60.67;101189.78;5010464;28;20704;-73
2023/06/14 03:56:17;;;;;;;10.20;5.38;;;;;;;16.04;60.31;101187.50;4979931;28;20033;-73
2023/06/14 03:58:43;;;;;;;10.70;5.03;;;;;;;16.02;60.32;101192.13;4984775;28;20042;-73
2023/06/14 04:01:09;;;;;;;10.57;4.65;;;;;;;16.01;60.70;101198.34;5000109;28;20042;-72
2023/06/14 04:03:34;;;;;;;9.00;5.45;;;;;;;16.04;60.90;101187.50;4983431;28;20417;-73
2023/06/14 04:06:01;;;;;;;11.18;5.93;;;;;;;16.06;60.76;101187.34;4983453;28;20038;-73
2023/06/14 04:08:26;;;;;;;11.57;4.82;;;;;;;16.09;60.46;101190.41;4984179;28;20544;-73
2023/06/14 04:10:52;;;;;;;7.93;4.97;;;;;;;16.09;60.88;101193.00;4985117;28;20405;-73
2023/06/14 04:13:17;;;;;;;8.23;4.63;;;;;;;16.08;61.02;101199.22;4986536;28;20034;-73
2023/06/14 04:15:45;;;;;;;6.07;4.32;;;;;;;16.05;61.01;101193.53;5006403;28;20017;-73
2023/06/14 04:18:14;;;;;;;9.60;4.78;;;;;;;16.04;60.75;101205.81;5000316;28;20041;-72
2023/06/14 04:21:13;;;;;;;9.07;4.65;;;;;;;16.09;61.20;101206.09;4986323;28;20022;-72
2023/06/14 04:23:44;;;;;;;9.98;5.15;;;;;;;16.07;61.06;101205.47;4964105;28;20066;-72
2023/06/14 04:26:11;;;;;;;7.90;5.03;;;;;;;16.03;61.26;101206.00;4979138;28;20087;-72
2023/06/14 04:28:40;;;;;;;11.32;5.32;;;;;;;16.15;60.64;101210.59;4968906;28;20098;-72
2023/06/14 04:31:08;;;;;;;9.02;4.78;;;;;;;16.09;60.93;101211.31;4980018;28;20626;-73
2023/06/14 04:33:43;;;;;;;13.57;5.68;;;;;;;16.13;59.90;101206.53;4980842;28;20053;-72
2023/06/14 04:36:12;;;;;;;10.02;4.88;;;;;;;16.08;60.62;101212.31;4989348;28;20497;-73
2023/06/14 04:38:38;;;;;;;12.07;4.85;;;;;;;16.07;61.02;101215.94;4985872;28;20045;-73
2023/06/14 04:41:04;;;;;;;7.72;4.90;;;;;;;16.21;60.65;101209.03;5002080;28;20536;-73
2023/06/14 04:43:37;;;;;;;9.68;4.70;;;;;;;16.23;60.97;101220.13;5021044;28;20076;-73
2023/06/14 04:46:14;;;;;;;7.28;5.03;;;;;;;16.25;61.06;101218.16;5004158;28;20503;-73
2023/06/14 04:48:42;;;;;;;16.45;6.25;;;;;;;16.31;60.74;101221.84;5001710;28;20108;-72
2023/06/14 04:51:09;;;;;;;8.18;4.55;;;;;;;16.34;61.04;101230.13;5004058;28;20598;-72
2023/06/14 04:53:35;;;;;;;9.43;4.78;;;;;;;16.37;60.43;101222.91;5003269;28;20038;-72
2023/06/14 04:56:01;;;;;;;9.82;5.03;;;;;;;16.42;59.90;101226.59;5002970;28;20110;-72
2023/06/14 04:58:28;;;;;;;9.57;5.00;;;;;;;16.55;60.57;101239.03;5002858;28;20053;-72
2023/06/14 05:00:58;;;;;;;9.05;5.20;;;;;;;16.68;59.76;101238.34;4988083;28;20057;-72
2023/06/14 05:03:25;;;;;;;12.32;4.65;;;;;;;16.73;59.66;101247.28;5002078;28;20033;-73
2023/06/14 05:05:53;;;;;;;11.48;5.60;;;;;;;16.67;59.54;101244.56;5000070;28;20030;-72
2023/06/14 05:08:20;;;;;;;10.70;4.93;;;;;;;16.73;59.78;101243.84;4990468;28;20128;-72
2023/06/14 05:10:47;;;;;;;9.55;4.45;;;;;;;16.79;59.07;101248.34;4983379;28;20512;-72
2023/06/14 05:13:13;;;;;;;11.80;4.82;;;;;;;16.82;58.14;101248.00;4983266;28;20031;-72
2023/06/14 05:15:38;;;;;;;7.95;4.50;;;;;;;16.89;58.31;101253.28;4994509;28;20119;-71
2023/06/14 05:18:04;;;;;;;11.18;4.50;;;;;;;16.97;58.05;101252.38;5016367;28;20485;-72
2023/06/14 05:20:30;;;;;;;7.40;4.60;;;;;;;17.07;57.45;101245.03;4983491;28;20030;-72
2023/06/14 05:22:56;;;;;;;11.05;5.13;;;;;;;17.13;57.31;101249.50;4984125;28;20034;-71
2023/06/14 05:25:22;;;;;;;8.82;4.95;;;;;;;17.19;57.24;101248.75;4981346;28;20042;-72
2023/06/14 05:27:48;;;;;;;10.75;4.60;;;;;;;17.30;56.69;101250.03;4983314;28;20085;-72
2023/06/14 05:30:15;;;;;;;13.63;4.85;;;;;;;17.47;56.89;101251.38;4996258;28;20081;-72
2023/06/14 05:32:41;;;;;;;12.27;4.82;;;;;;;17.50;55.63;101261.50;4996629;28;20417;-72
2023/06/14 05:35:10;;;;;;;10.45;4.68;;;;;;;17.68;56.40;101260.19;4985591;28;20593;-72
2023/06/14 05:37:36;;;;;;;8.50;4.65;;;;;;;17.80;55.85;101257.84;4985600;28;20034;-72
2023/06/14 05:40:04;;;;;;;12.13;4.40;;;;;;;17.93;55.38;101260.56;5001901;28;20045;-72
2023/06/14 05:42:30;;;;;;;10.38;3.75;;;;;;;18.00;53.49;101264.03;5004035;28;20038;-72
2023/06/14 05:44:55;;;;;;;8.50;3.75;;;;;;;18.23;53.65;101258.53;5003048;28;20112;-72
2023/06/14 05:47:21;;;;;;;6.72;3.97;;;;;;;18.42;53.66;101254.34;5000417;28;20034;-72
2023/06/14 05:49:47;;;;;;;17.75;4.88;;;;;;;18.51;52.08;101259.44;5004318;28;20529;-72
2023/06/14 05:52:12;;;;;;;11.90;4.47;;;;;;;18.71;52.79;101262.91;5001517;28;20045;-72
2023/06/14 05:54:38;;;;;;;8.00;4.40;;;;;;;18.93;52.47;101268.03;5001514;28;20034;-72
2023/06/14 05:57:06;;;;;;;9.77;4.25;;;;;;;19.09;51.94;101267.66;5002946;28;20444;-72
2023/06/14 05:59:31;;;;;;;8.30;3.65;;;;;;;19.15;51.12;101271.28;5001231;28;20080;-72
2023/06/14 06:02:00;;;;;;;9.82;4.30;;;;;;;19.32;49.98;101272.50;5005355;28;20505;-72
2023/06/14 06:04:25;;;;;;;7.30;3.80;;;;;;;19.48;49.89;101275.72;5001277;28;20034;-72
2023/06/14 06:06:51;;;;;;;6.93;4.00;;;;;;;19.70;49.93;101279.75;5003051;28;20041;-72
2023/06/14 06:09:16;;;;;;;9.30;3.80;;;;;;;19.88;49.68;101278.38;4991776;28;20579;-72
2023/06/14 06:11:42;;;;;;;11.43;4.30;;;;;;;20.08;48.75;101280.91;4983610;28;20037;-72
2023/06/14 06:14:07;;;;;;;8.82;4.00;;;;;;;20.31;47.59;101281.25;4992380;28;20050;-72
2023/06/14 06:16:33;;;;;;;5.97;3.63;;;;;;;20.61;48.13;101280.75;5004072;28;20037;-72
2023/06/14 06:18:59;;;;;;;6.57;4.07;;;;;;;20.83;47.45;101285.69;5002021;28;20045;-73
2023/06/14 06:21:25;;;;;;;11.77;4.00;;;;;;;21.05;45.96;101281.69;5001933;28;20076;-72
2023/06/14 06:23:50;;;;;;;10.20;4.10;;;;;;;21.12;45.65;101286.91;5001497;28;20038;-72
2023/06/14 06:26:16;;;;;;;6.90;4.30;;;;;;;21.46;45.65;101282.22;5018395;28;20038;-72
2023/06/14 06:28:41;;;;;;;7.72;4.03;;;;;;;21.74;45.54;101281.75;4989050;28;20042;-72
2023/06/14 06:31:07;;;;;;;8.27;4.10;;;;;;;21.88;45.12;101279.75;4987686;28;20057;-73
2023/06/14 06:33:32;;;;;;;12.85;4.25;;;;;;;21.46;44.62;101290.13;4997568;28;20072;-72
2023/06/14 06:35:58;;;;;;;7.32;3.80;;;;;;;21.63;44.34;101285.09;4979382;28;20417;-72
2023/06/14 06:38:23;;;;;;;8.55;4.43;;;;;;;21.72;44.52;101289.06;4982788;28;20049;-73
2023/06/14 06:40:49;;;;;;;10.45;3.83;;;;;;;21.75;43.61;101291.25;5006836;28;20026;-72
2023/06/14 06:43:17;;;;;;;7.72;4.00;;;;;;;22.11;44.08;101289.66;5002864;28;20041;-73
2023/06/14 06:45:46;;;;;;;11.40;3.35;;;;;;;22.51;43.13;101291.84;5020770;28;20033;-73
2023/06/14 06:48:12;;;;;;;10.98;4.30;;;;;;;22.55;43.11;101301.75;5005547;28;20037;-72
2023/06/14 06:50:38;;;;;;;7.55;3.67;;;;;;;22.99;42.35;101298.09;5006379;28;20635;-73
2023/06/14 06:53:03;;;;;;;18.95;9.13;;;;;;;23.28;41.89;101296.44;5003357;28;20720;-73
2023/06/14 06:55:29;;;;;;;9.05;3.78;;;;;;;23.46;41.09;101306.13;5006579;28;20037;-73
2023/06/14 06:57:55;;;;;;;10.60;4.13;;;;;;;23.77;40.72;101307.63;5005020;28;20028;-72
2023/06/14 07:00:21;;;;;;;11.57;3.88;;;;;;;24.16;40.28;101318.50;5006609;28;20038;-72
2023/06/14 07:02:47;;;;;;;13.23;3.97;;;;;;;24.04;39.26;101313.25;5000945;28;20034;-73
2023/06/14 07:05:13;;;;;;;7.25;3.22;;;;;;;24.26;38.42;101309.94;5006644;28;20060;-72
2023/06/14 07:07:39;;;;;;;17.00;3.72;;;;;;;24.80;37.95;101312.31;5003127;28;20497;-72
2023/06/14 07:10:05;;;;;;;6.82;4.00;;;;;;;24.82;38.04;101315.53;5004532;28;20854;-73
2023/06/14 07:12:35;;;;;;;8.35;3.72;;;;;;;25.21;37.51;101313.78;5003336;28;20033;-72
2023/06/14 07:15:01;;;;;;;6.90;3.17;;;;;;;25.43;36.84;101313.09;5005234;28;20524;-73
2023/06/14 07:17:28;;;;;;;10.40;3.33;;;;;;;25.17;36.28;101311.88;5005658;28;20054;-72
2023/06/14 07:19:54;;;;;;;7.00;3.03;;;;;;;24.92;36.07;101306.94;5003181;28;20061;-72
2023/06/14 07:22:19;;;;;;;10.40;3.58;;;;;;;25.11;36.25;101300.38;5001430;28;20049;-72
2023/06/14 07:24:45;;;;;;;7.18;3.33;;;;;;;24.67;36.74;101310.75;4998536;28;20448;-72
2023/06/14 07:27:11;;;;;;;7.63;2.67;;;;;;;25.33;36.09;101310.28;5003582;28;20412;-73
2023/06/14 07:29:36;;;;;;;12.35;3.13;;;;;;;25.89;35.44;101308.41;4999495;28;20050;-72
2023/06/14 07:32:02;;;;;;;6.15;2.90;;;;;;;25.87;35.67;101309.72;4993982;28;20042;-73
2023/06/14 07:34:27;;;;;;;7.60;2.75;;;;;;;26.23;34.85;101300.34;5001850;28;20567;-73
2023/06/14 07:36:54;;;;;;;8.13;2.60;;;;;;;26.42;32.85;101303.47;5002490;28;20096;-72
2023/06/14 07:39:45;;;;;;;11.43;2.17;;;;;;;26.61;31.87;101299.44;4996218;28;20584;-72
2023/06/14 07:42:36;;;;;;;4.75;1.48;;;;;;;26.66;31.45;101317.31;5005505;28;20103;-73
2023/06/14 07:45:05;;;;;;;10.90;1.73;;;;;;;26.58;30.22;101307.09;5004666;28;20058;-72
2023/06/14 07:47:31;;;;;;;3.08;1.88;;;;;;;26.99;30.61;101304.81;5004077;28;20033;-73
2023/06/14 07:49:56;;;;;;;1.98;1.13;;;;;;;26.59;30.71;101309.50;5004265;28;20046;-72
2023/06/14 07:52:22;;;;;;;6.80;1.55;;;;;;;26.98;29.79;101306.69;5005214;28;20520;-73
2023/06/14 07:54:47;;;;;;;2.50;1.50;;;;;;;27.25;29.99;101303.19;5004610;28;20046;-72
2023/06/14 07:57:13;;;;;;;5.03;1.98;;;;;;;27.32;29.92;101306.44;5002523;28;20041;-74
2023/06/14 07:59:38;;;;;;;3.00;1.60;;;;;;;27.63;29.97;101305.81;5006142;28;20534;-73
2023/06/14 08:02:04;;;;;;;8.85;2.53;;;;;;;27.77;29.87;101306.97;5003620;28;20092;-72
2023/06/14 08:04:30;;;;;;;3.53;1.80;;;;;;;27.58;29.29;101309.25;5000942;28;20556;-72
2023/06/14 08:06:56;;;;;;;2.67;1.83;;;;;;;27.42;30.15;101302.22;5005916;28;20572;-73
2023/06/14 08:09:22;;;;;;;5.80;1.73;;;;;;;27.48;30.79;101309.19;5004550;28;20129;-72
2023/06/14 08:11:48;;;;;;;6.88;2.10;;;;;;;27.62;30.22;101315.66;5002291;28;20038;-73
2023/06/14 08:14:13;;;;;;;4.25;1.77;;;;;;;27.51;30.29;101309.47;5006161;28;20062;-72
2023/06/14 08:16:39;;;;;;;5.20;2.00;;;;;;;27.41;30.33;101303.28;5003058;28;20042;-72
2023/06/14 08:19:05;;;;;;;2.50;1.52;;;;;;;27.57;29.20;101311.09;5002874;28;20045;-72
2023/06/14 08:21:33;;;;;;;3.22;1.50;;;;;;;28.03;28.52;101309.75;4986319;28;21006;-73
2023/06/14 08:24:00;;;;;;;7.45;1.80;;;;;;;28.52;27.56;101310.19;4993254;28;20129;-73
2023/06/14 08:26:28;;;;;;;9.65;1.55;;;;;;;28.47;27.12;101304.03;4963827;28;20042;-72
2023/06/14 08:28:55;;;;;;;4.75;1.60;;;;;;;28.26;27.20;101311.97;4987990;28;20085;-73
2023/06/14 08:31:20;;;;;;;2.67;1.30;;;;;;;28.40;26.51;101304.25;5004066;28;20038;-73
2023/06/14 08:33:46;;;;;;;1.80;1.33;;;;;;;28.73;26.85;101304.88;5000215;28;20042;-73
2023/06/14 08:36:12;;;;;;;2.45;1.70;;;;;;;28.78;26.50;101309.41;5003619;28;20124;-72
2023/06/14 08:38:41;;;;;;;2.95;1.42;;;;;;;28.44;26.39;101308.00;4994914;28;20072;-72
2023/06/14 08:41:07;;;;;;;3.38;1.63;;;;;;;28.67;26.84;101316.59;4982818;28;20110;-73
2023/06/14 08:43:33;;;;;;;2.92;1.40;;;;;;;28.80;27.46;101316.09;4982981;28;20469;-72
2023/06/14 08:46:02;;;;;;;4.65;1.60;;;;;;;28.91;26.00;101311.53;5000300;28;20033;-73
2023/06/14 08:48:28;;;;;;;6.78;1.73;;;;;;;28.75;26.17;101308.09;5003138;28;20049;-73
2023/06/14 08:51:01;;;;;;;2.10;1.30;;;;;;;28.98;25.32;101311.28;5000618;28;20044;-74
2023/06/14 08:53:31;;;;;;;6.05;1.30;;;;;;;29.31;24.68;101316.09;4983846;28;20040;-73
2023/06/14 08:56:01;;;;;;;8.55;1.48;;;;;;;29.15;25.50;101298.50;5001711;28;20045;-72
2023/06/14 08:58:29;;;;;;;2.78;1.40;;;;;;;28.97;26.36;101302.50;5016210;28;20056;-73
2023/06/14 09:00:55;;;;;;;1.98;1.27;;;;;;;28.86;26.68;101295.56;5000997;28;20033;-73
2023/06/14 09:03:22;;;;;;;5.28;1.70;;;;;;;29.23;27.23;101303.28;4998730;28;20488;-73
2023/06/14 09:05:47;;;;;;;21.27;3.17;;;;;;;28.92;26.25;101305.94;5002336;28;20042;-73
2023/06/14 09:08:13;;;;;;;4.80;1.50;;;;;;;28.50;26.33;101314.13;5001729;28;20103;-73
2023/06/14 09:10:40;;;;;;;7.47;2.17;;;;;;;27.37;27.14;101311.78;5000260;28;20096;-73
2023/06/14 09:13:06;;;;;;;4.00;1.60;;;;;;;27.71;26.55;101316.78;5003611;28;20408;-73
2023/06/14 09:15:32;;;;;;;2.38;1.67;;;;;;;27.64;28.01;101312.75;5014772;28;20030;-73
2023/06/14 09:18:01;;;;;;;4.22;1.40;;;;;;;26.43;27.91;101313.06;5001893;28;20041;-72
2023/06/14 09:20:26;;;;;;;5.63;1.50;;;;;;;26.99;27.79;101321.59;4980411;28;20092;-72
2023/06/14 09:22:53;;;;;;;3.65;1.48;;;;;;;26.50;27.72;101331.47;4982292;28;20038;-71
2023/06/14 09:25:18;;;;;;;3.08;1.70;;;;;;;26.53;29.09;101326.44;4991344;28;20034;-72
2023/06/14 09:27:46;;;;;;;5.50;1.60;;;;;;;27.26;29.26;101326.09;4977538;28;20170;-71
2023/06/14 09:30:13;;;;;;;6.95;2.83;;;;;;;27.20;29.16;101313.78;4994073;28;20457;-72
2023/06/14 09:32:41;;;;;;;7.13;1.80;;;;;;;28.04;28.90;101317.47;4978132;28;20037;-71
2023/06/14 09:35:10;;;;;;;10.20;1.52;;;;;;;28.46;28.52;101319.22;4977853;28;20034;-72
2023/06/14 09:41:40;;;;;;;3.72;1.33;;;;;;;28.03;28.50;101329.22;4984261;28;20194;-72
2023/06/14 09:44:10;;;;;;;7.88;1.88;;;;;;;28.60;28.17;101326.75;4990642;28;20092;-73
2023/06/14 09:46:36;;;;;;;3.88;2.60;;;;;;;28.86;28.33;101328.38;5002126;28;20038;-73
2023/06/14 09:49:03;;;;;;;7.28;2.92;;;;;;;28.30;28.41;101330.91;5000673;28;21552;-73
2023/06/14 09:51:30;;;;;;;7.00;2.40;;;;;;;28.01;29.08;101327.84;4999870;28;20034;-72
2023/06/14 09:54:04;;;;;;;9.18;3.20;;;;;;;27.85;28.81;101329.63;5000626;28;20054;-73
2023/06/14 09:56:35;;;;;;;7.57;1.60;;;;;;;26.69;30.14;101340.75;4995710;28;20317;-73
2023/06/14 09:59:08;;;;;;;10.55;1.60;;;;;;;26.47;30.33;101331.97;5001043;28;20496;-72
2023/06/14 10:01:35;;;;;;;9.30;2.13;;;;;;;26.99;31.31;101329.59;5001661;28;20044;-73
2023/06/14 10:04:04;;;;;;;6.20;2.15;;;;;;;27.48;30.79;101328.66;4999408;28;20086;-73
2023/06/14 10:06:36;;;;;;;2.13;1.60;;;;;;;28.20;30.12;101333.53;5002033;28;20481;-73
2023/06/14 10:09:05;;;;;;;3.38;1.73;;;;;;;28.10;29.04;101329.75;4994532;28;20052;-73
2023/06/14 10:11:31;;;;;;;7.90;1.75;;;;;;;28.10;29.55;101328.97;4982282;28;20038;-73
2023/06/14 10:13:58;;;;;;;7.00;2.25;;;;;;;27.48;30.20;101320.66;4986599;28;20035;-73
2023/06/14 10:16:30;;;;;;;5.07;1.83;;;;;;;26.76;30.89;101332.56;4988623;28;20026;-73
2023/06/14 10:19:24;;;;;;;4.18;1.83;;;;;;;25.91;32.07;101332.88;4990617;28;20026;-72
2023/06/14 10:22:10;;;;;;;3.53;1.65;;;;;;;26.62;31.72;101334.81;4990437;28;20030;-74
2023/06/14 10:24:43;;;;;;;6.10;1.67;;;;;;;26.88;31.22;101333.22;5004438;28;20524;-73
2023/06/14 10:27:12;;;;;;;4.20;1.63;;;;;;;26.82;30.67;101331.53;4985378;28;20128;-73
2023/06/14 10:29:52;;;;;;;8.55;1.92;;;;;;;27.41;29.82;101319.25;4989463;28;20051;-74
2023/06/14 10:32:19;;;;;;;7.18;2.42;;;;;;;27.95;30.28;101332.38;4986468;28;20031;-74
2023/06/14 10:34:44;;;;;;;7.63;2.15;;;;;;;28.00;29.10;101329.72;4996773;28;22087;-74
2023/06/14 10:37:14;;;;;;;3.15;2.15;;;;;;;27.87;29.70;101327.50;4990101;28;20049;-73
2023/06/14 10:39:46;;;;;;;5.88;1.65;;;;;;;27.91;30.43;101321.41;4988557;28;20050;-73
2023/06/14 10:42:12;;;;;;;9.07;1.80;;;;;;;28.27;30.35;101326.09;5006102;28;20040;-74
2023/06/14 10:44:49;;;;;;;4.28;1.38;;;;;;;27.74;29.69;101316.25;5003014;28;20042;-74
2023/06/14 10:47:43;;;;;;;5.47;1.80;;;;;;;27.83;29.87;101326.44;5005444;28;20041;-73
2023/06/14 10:50:14;;;;;;;3.15;1.45;;;;;;;27.80;29.43;101318.94;4968161;28;20130;-73
2023/06/14 10:52:43;;;;;;;3.03;1.58;;;;;;;28.12;29.51;101318.84;5004344;28;20479;-73
2023/06/14 10:55:14;;;;;;;7.18;2.20;;;;;;;27.93;29.33;101318.50;5005070;28;20048;-73
2023/06/14 10:57:51;;;;;;;2.80;1.50;;;;;;;27.13;30.01;101319.31;5000634;28;20071;-73
2023/06/14 11:00:22;;;;;;;2.55;1.42;;;;;;;27.55;29.73;101320.41;4999244;28;20115;-73
2023/06/14 11:03:31;;;;;;;4.32;1.17;;;;;;;27.39;29.21;101322.19;5004618;28;20022;-73
2023/06/14 11:06:00;;;;;;;2.85;1.33;;;;;;;27.23;30.35;101321.25;5003987;28;20041;-73
2023/06/14 11:08:50;;;;;;;3.05;1.58;;;;;;;27.34;29.13;101314.97;5005208;28;20038;-73
2023/06/14 11:11:16;;;;;;;4.88;2.53;;;;;;;27.14;29.79;101323.59;5003385;28;20065;-73
2023/06/14 11:13:46;;;;;;;3.35;1.25;;;;;;;27.23;29.72;101328.44;4997207;28;20451;-73
2023/06/14 11:16:14;;;;;;;6.78;1.05;;;;;;;27.03;29.63;101319.25;4981237;28;20022;-73
2023/06/14 11:18:41;;;;;;;6.75;1.33;;;;;;;27.50;29.48;101329.19;4981850;28;20315;-74
2023/06/14 11:21:06;;;;;;;3.97;1.20;;;;;;;27.57;29.42;101319.09;4982827;28;20045;-73
2023/06/14 11:23:32;;;;;;;4.38;1.20;;;;;;;27.20;29.69;101319.09;4983187;28;20122;-73
2023/06/14 11:25:57;;;;;;;1.45;1.10;;;;;;;27.14;30.34;101320.09;4978912;28;20026;-73
2023/06/14 11:28:23;;;;;;;6.95;1.40;;;;;;;27.45;28.72;101321.16;4983562;28;20046;-73
2023/06/14 11:31:00;;;;;;;2.42;1.20;;;;;;;27.40;29.38;101317.66;4985176;28;20061;-73
2023/06/14 11:33:25;;;;;;;7.63;1.52;;;;;;;27.16;29.64;101321.47;4986916;28;20042;-73
2023/06/14 11:35:52;;;;;;;11.63;1.35;;;;;;;27.60;29.75;101319.66;4987542;28;20037;-73
2023/06/14 11:38:17;;;;;;;4.03;1.38;;;;;;;27.92;28.30;101316.91;4983092;28;20042;-73